SJX931 RKSI-RCTP
Flight info
| Callsign | SJX931 |
|---|---|
| Flight time | 2h 46m |
| Altitude | 38000 |
| Route | BOPTA2Y BOPTA Z51 BEDES Y711 MUGUS Y742 SALMI B576 BAKER BAKER1A |
| Aircraft | A359/H-SDE2E3GHIJ3J4J5LM1ORWXY/LB1D1 |
Departure
| Time | 2026-05-08 02:27 |
|---|---|
| Airport | Incheon International Airport (RKSI) |
Arrival
| Time | 2026-05-08 05:14 |
|---|---|
| Airport | Taiwan Taoyuan International Airport (RCTP) |
| Time | Latitude | Longitude | Altitude | Speed | Heading |
|---|---|---|---|---|---|
| 2026-05-08 01:45 | 37.45269 | 126.45029 | 38 ft | 0 kts | 73° |
| 2026-05-08 02:18 | 37.45267 | 126.45021 | 36 ft | 4 kts | 73° |
| 2026-05-08 02:19 | 37.45259 | 126.44988 | 37 ft | 4 kts | 73° |
| 2026-05-08 02:19 | 37.45253 | 126.44963 | 36 ft | 4 kts | 70° |
| 2026-05-08 02:19 | 37.45241 | 126.44934 | 35 ft | 4 kts | 37° |
| 2026-05-08 02:19 | 37.45222 | 126.44929 | 37 ft | 4 kts | 343° |
| 2026-05-08 02:20 | 37.45199 | 126.44938 | 36 ft | 1 kts | 343° |
| 2026-05-08 02:20 | 37.45198 | 126.44938 | 36 ft | 0 kts | 343° |
| 2026-05-08 02:22 | 37.45199 | 126.44938 | 36 ft | 2 kts | 344° |
| 2026-05-08 02:23 | 37.45251 | 126.44919 | 35 ft | 13 kts | 343° |
| 2026-05-08 02:23 | 37.45351 | 126.44859 | 38 ft | 17 kts | 309° |
| 2026-05-08 02:23 | 37.45337 | 126.44732 | 38 ft | 16 kts | 233° |
| 2026-05-08 02:23 | 37.45269 | 126.44617 | 37 ft | 17 kts | 234° |
| 2026-05-08 02:24 | 37.45200 | 126.44496 | 39 ft | 17 kts | 234° |
| 2026-05-08 02:24 | 37.45128 | 126.44369 | 39 ft | 18 kts | 234° |
| 2026-05-08 02:24 | 37.45053 | 126.44237 | 39 ft | 19 kts | 234° |
| 2026-05-08 02:24 | 37.44976 | 126.44101 | 39 ft | 20 kts | 234° |
| 2026-05-08 02:25 | 37.44891 | 126.43978 | 39 ft | 17 kts | 199° |
| 2026-05-08 02:25 | 37.44789 | 126.44036 | 39 ft | 17 kts | 145° |
| 2026-05-08 02:25 | 37.44686 | 126.44128 | 39 ft | 19 kts | 144° |
| 2026-05-08 02:25 | 37.44573 | 126.44229 | 38 ft | 21 kts | 144° |
| 2026-05-08 02:26 | 37.44467 | 126.44311 | 38 ft | 15 kts | 171° |
| 2026-05-08 02:26 | 37.44388 | 126.44238 | 37 ft | 15 kts | 235° |
| 2026-05-08 02:26 | 37.44397 | 126.44119 | 37 ft | 15 kts | 314° |
| 2026-05-08 02:26 | 37.44514 | 126.44012 | 38 ft | 39 kts | 325° |
| 2026-05-08 02:27 | 37.44920 | 126.43652 | 37 ft | 102 kts | 324° |
| 2026-05-08 02:27 | 37.45653 | 126.43002 | 42 ft | 154 kts | 325° |
| 2026-05-08 02:27 | 37.46554 | 126.42246 | 646 ft | 153 kts | 327° |
| 2026-05-08 02:27 | 37.47439 | 126.41474 | 1281 ft | 151 kts | 321° |
| 2026-05-08 02:28 | 37.48181 | 126.40502 | 1790 ft | 162 kts | 308° |
| 2026-05-08 02:28 | 37.48914 | 126.39290 | 2095 ft | 186 kts | 308° |
| 2026-05-08 02:28 | 37.49732 | 126.37947 | 2620 ft | 199 kts | 308° |
| 2026-05-08 02:28 | 37.50353 | 126.36351 | 3173 ft | 211 kts | 287° |
| 2026-05-08 02:29 | 37.50517 | 126.34443 | 3649 ft | 227 kts | 277° |
| 2026-05-08 02:29 | 37.50544 | 126.32430 | 4358 ft | 231 kts | 276° |
| 2026-05-08 02:29 | 37.50569 | 126.30404 | 5148 ft | 232 kts | 277° |
| 2026-05-08 02:29 | 37.50603 | 126.28366 | 5906 ft | 234 kts | 277° |
| 2026-05-08 02:30 | 37.50645 | 126.26298 | 6665 ft | 237 kts | 278° |
| 2026-05-08 02:30 | 37.50691 | 126.24216 | 7447 ft | 238 kts | 278° |
| 2026-05-08 02:30 | 37.50722 | 126.22126 | 8277 ft | 241 kts | 275° |
| 2026-05-08 02:30 | 37.50435 | 126.20002 | 9079 ft | 254 kts | 258° |
| 2026-05-08 02:31 | 37.49466 | 126.18058 | 9873 ft | 276 kts | 234° |
| 2026-05-08 02:31 | 37.47795 | 126.16665 | 10440 ft | 305 kts | 213° |
| 2026-05-08 02:31 | 37.45736 | 126.15669 | 10787 ft | 328 kts | 208° |
| 2026-05-08 02:31 | 37.43463 | 126.14852 | 11116 ft | 355 kts | 196° |
| 2026-05-08 02:32 | 37.40909 | 126.15010 | 11577 ft | 383 kts | 169° |
| 2026-05-08 02:32 | 37.38472 | 126.16487 | 12183 ft | 398 kts | 144° |
| 2026-05-08 02:32 | 37.36521 | 126.19001 | 12841 ft | 405 kts | 128° |
| 2026-05-08 02:32 | 37.34773 | 126.21808 | 13494 ft | 411 kts | 128° |
| 2026-05-08 02:33 | 37.32971 | 126.24618 | 14127 ft | 416 kts | 129° |
| 2026-05-08 02:33 | 37.31102 | 126.27429 | 14712 ft | 421 kts | 130° |
| 2026-05-08 02:33 | 37.29185 | 126.30240 | 15292 ft | 426 kts | 131° |
| 2026-05-08 02:33 | 37.27233 | 126.33063 | 15880 ft | 430 kts | 132° |
| 2026-05-08 02:34 | 37.25248 | 126.35914 | 16490 ft | 435 kts | 132° |
| 2026-05-08 02:34 | 37.23243 | 126.38782 | 17087 ft | 440 kts | 133° |
| 2026-05-08 02:34 | 37.21210 | 126.41676 | 17693 ft | 444 kts | 133° |
| 2026-05-08 02:34 | 37.18906 | 126.44243 | 18289 ft | 443 kts | 152° |
| 2026-05-08 02:35 | 37.16150 | 126.45909 | 18871 ft | 438 kts | 165° |
| 2026-05-08 02:35 | 37.13300 | 126.47238 | 19469 ft | 439 kts | 166° |
| 2026-05-08 02:35 | 37.10427 | 126.48560 | 20113 ft | 442 kts | 166° |
| 2026-05-08 02:35 | 37.07533 | 126.49908 | 20729 ft | 444 kts | 166° |
| 2026-05-08 02:36 | 37.04631 | 126.51256 | 21355 ft | 445 kts | 168° |
| 2026-05-08 02:36 | 37.01715 | 126.52357 | 21957 ft | 443 kts | 173° |
| 2026-05-08 02:36 | 36.98694 | 126.53354 | 22551 ft | 445 kts | 174° |
| 2026-05-08 02:36 | 36.95679 | 126.54335 | 23144 ft | 448 kts | 174° |
| 2026-05-08 02:37 | 36.92654 | 126.55324 | 23713 ft | 451 kts | 174° |
| 2026-05-08 02:37 | 36.89609 | 126.56323 | 24173 ft | 454 kts | 174° |
| 2026-05-08 02:37 | 36.86543 | 126.57332 | 24638 ft | 458 kts | 174° |
| 2026-05-08 02:37 | 36.83455 | 126.58351 | 25055 ft | 461 kts | 174° |
| 2026-05-08 02:38 | 36.80336 | 126.59374 | 25510 ft | 464 kts | 175° |
| 2026-05-08 02:38 | 36.77208 | 126.60401 | 25980 ft | 467 kts | 175° |
| 2026-05-08 02:38 | 36.74061 | 126.61434 | 26454 ft | 469 kts | 175° |
| 2026-05-08 02:38 | 36.70899 | 126.62486 | 26928 ft | 472 kts | 175° |
| 2026-05-08 02:39 | 36.67719 | 126.63554 | 27372 ft | 475 kts | 175° |
| 2026-05-08 02:39 | 36.64511 | 126.64631 | 27835 ft | 478 kts | 175° |
| 2026-05-08 02:39 | 36.61295 | 126.65712 | 28222 ft | 480 kts | 176° |
| 2026-05-08 02:39 | 36.58072 | 126.66796 | 28746 ft | 481 kts | 176° |
| 2026-05-08 02:40 | 36.54838 | 126.67881 | 29185 ft | 483 kts | 176° |
| 2026-05-08 02:40 | 36.51585 | 126.68969 | 29581 ft | 486 kts | 176° |
| 2026-05-08 02:40 | 36.48304 | 126.70064 | 29996 ft | 488 kts | 176° |
| 2026-05-08 02:40 | 36.45016 | 126.71161 | 30327 ft | 491 kts | 176° |
| 2026-05-08 02:41 | 36.41708 | 126.72264 | 30624 ft | 494 kts | 176° |
| 2026-05-08 02:41 | 36.38381 | 126.73374 | 30873 ft | 497 kts | 177° |
| 2026-05-08 02:41 | 36.35036 | 126.74502 | 31184 ft | 499 kts | 177° |
| 2026-05-08 02:41 | 36.31672 | 126.75641 | 31528 ft | 500 kts | 177° |
| 2026-05-08 02:42 | 36.28312 | 126.76778 | 31875 ft | 502 kts | 177° |
| 2026-05-08 02:42 | 36.24938 | 126.77916 | 32123 ft | 504 kts | 177° |
| 2026-05-08 02:42 | 36.21545 | 126.79057 | 32369 ft | 507 kts | 177° |
| 2026-05-08 02:42 | 36.18133 | 126.80155 | 32629 ft | 504 kts | 180° |
| 2026-05-08 02:43 | 36.14712 | 126.80768 | 32893 ft | 487 kts | 190° |
| 2026-05-08 02:43 | 36.11387 | 126.80778 | 33222 ft | 474 kts | 197° |
| 2026-05-08 02:43 | 36.08142 | 126.80546 | 33444 ft | 473 kts | 198° |
| 2026-05-08 02:43 | 36.04828 | 126.80209 | 33671 ft | 473 kts | 199° |
| 2026-05-08 02:44 | 36.01542 | 126.79831 | 33926 ft | 473 kts | 199° |
| 2026-05-08 02:44 | 35.98266 | 126.79444 | 34233 ft | 473 kts | 199° |
| 2026-05-08 02:44 | 35.95002 | 126.79070 | 34562 ft | 469 kts | 200° |
| 2026-05-08 02:44 | 35.91800 | 126.78713 | 34893 ft | 468 kts | 200° |
| 2026-05-08 02:45 | 35.88518 | 126.78352 | 35089 ft | 469 kts | 199° |
| 2026-05-08 02:45 | 35.85255 | 126.77995 | 35289 ft | 470 kts | 199° |
| 2026-05-08 02:45 | 35.81999 | 126.77638 | 35503 ft | 470 kts | 199° |
| 2026-05-08 02:45 | 35.78741 | 126.77282 | 35687 ft | 471 kts | 199° |
| 2026-05-08 02:46 | 35.75523 | 126.76933 | 35959 ft | 469 kts | 199° |
| 2026-05-08 02:46 | 35.72273 | 126.76582 | 36186 ft | 469 kts | 198° |
| 2026-05-08 02:46 | 35.69020 | 126.76230 | 36374 ft | 470 kts | 198° |
| 2026-05-08 02:46 | 35.65762 | 126.75878 | 36562 ft | 470 kts | 198° |
| 2026-05-08 02:47 | 35.62454 | 126.75520 | 36751 ft | 471 kts | 198° |
| 2026-05-08 02:47 | 35.59228 | 126.75173 | 36860 ft | 471 kts | 198° |
| 2026-05-08 02:47 | 35.55964 | 126.74821 | 37075 ft | 471 kts | 198° |
| 2026-05-08 02:47 | 35.52698 | 126.74473 | 37244 ft | 472 kts | 198° |
| 2026-05-08 02:48 | 35.49419 | 126.74121 | 37358 ft | 474 kts | 197° |
| 2026-05-08 02:48 | 35.46134 | 126.73775 | 37561 ft | 474 kts | 197° |
| 2026-05-08 02:48 | 35.42841 | 126.73424 | 37751 ft | 474 kts | 197° |
| 2026-05-08 02:48 | 35.39556 | 126.73071 | 37877 ft | 474 kts | 197° |
| 2026-05-08 02:49 | 35.36268 | 126.72715 | 38014 ft | 475 kts | 197° |
| 2026-05-08 02:49 | 35.32973 | 126.72358 | 38103 ft | 477 kts | 197° |
| 2026-05-08 02:49 | 35.26335 | 126.71643 | 38103 ft | 478 kts | 197° |
| 2026-05-08 02:50 | 35.19708 | 126.70943 | 38037 ft | 478 kts | 197° |
| 2026-05-08 02:50 | 35.13088 | 126.70243 | 38111 ft | 478 kts | 197° |
| 2026-05-08 02:51 | 35.06455 | 126.69551 | 38111 ft | 478 kts | 197° |
| 2026-05-08 02:51 | 34.99838 | 126.68843 | 38107 ft | 478 kts | 197° |
| 2026-05-08 02:52 | 34.93211 | 126.68134 | 38111 ft | 478 kts | 197° |
| 2026-05-08 02:52 | 34.86592 | 126.67432 | 38111 ft | 478 kts | 197° |
| 2026-05-08 02:53 | 34.79961 | 126.66732 | 38079 ft | 478 kts | 197° |
| 2026-05-08 02:53 | 34.73345 | 126.66036 | 38109 ft | 477 kts | 197° |
| 2026-05-08 02:54 | 34.66737 | 126.65341 | 38102 ft | 477 kts | 197° |
| 2026-05-08 02:54 | 34.60129 | 126.64643 | 38046 ft | 477 kts | 197° |
| 2026-05-08 02:55 | 34.50210 | 126.63598 | 38115 ft | 476 kts | 197° |
| 2026-05-08 02:56 | 34.43615 | 126.62915 | 38099 ft | 475 kts | 197° |
| 2026-05-08 02:56 | 34.37019 | 126.62218 | 38109 ft | 476 kts | 197° |
| 2026-05-08 02:57 | 34.30420 | 126.61535 | 38115 ft | 476 kts | 197° |
| 2026-05-08 02:57 | 34.23825 | 126.60852 | 38117 ft | 475 kts | 197° |
| 2026-05-08 02:58 | 34.17235 | 126.60163 | 38108 ft | 475 kts | 197° |
| 2026-05-08 02:58 | 34.10666 | 126.59481 | 38116 ft | 473 kts | 197° |
| 2026-05-08 02:59 | 34.05213 | 126.58913 | 38117 ft | 473 kts | 197° |
| 2026-05-08 02:59 | 33.98653 | 126.58230 | 38091 ft | 473 kts | 197° |
| 2026-05-08 03:00 | 33.92107 | 126.57552 | 38122 ft | 472 kts | 197° |
| 2026-05-08 03:00 | 33.85597 | 126.56773 | 38133 ft | 464 kts | 201° |
| 2026-05-08 03:00 | 33.82495 | 126.55904 | 38142 ft | 452 kts | 209° |
| 2026-05-08 03:01 | 33.79515 | 126.54756 | 38089 ft | 448 kts | 210° |
| 2026-05-08 03:01 | 33.73646 | 126.52255 | 38152 ft | 447 kts | 211° |
| 2026-05-08 03:02 | 33.67812 | 126.49683 | 38170 ft | 447 kts | 211° |
| 2026-05-08 03:02 | 33.61969 | 126.47127 | 38155 ft | 447 kts | 211° |
| 2026-05-08 03:03 | 33.56110 | 126.44587 | 38157 ft | 448 kts | 211° |
| 2026-05-08 03:03 | 33.50279 | 126.42071 | 38157 ft | 448 kts | 211° |
| 2026-05-08 03:04 | 33.44408 | 126.39544 | 38154 ft | 448 kts | 211° |
| 2026-05-08 03:04 | 33.38528 | 126.37022 | 38156 ft | 450 kts | 211° |
| 2026-05-08 03:05 | 33.32633 | 126.34486 | 38151 ft | 450 kts | 211° |
| 2026-05-08 03:05 | 33.26735 | 126.31953 | 38151 ft | 450 kts | 210° |
| 2026-05-08 03:06 | 33.20837 | 126.29426 | 38146 ft | 451 kts | 210° |
| 2026-05-08 03:06 | 33.14936 | 126.26902 | 38150 ft | 450 kts | 210° |
| 2026-05-08 03:07 | 33.09039 | 126.24383 | 38144 ft | 450 kts | 210° |
| 2026-05-08 03:07 | 33.03138 | 126.21865 | 38143 ft | 451 kts | 210° |
| 2026-05-08 03:08 | 32.97229 | 126.19347 | 38142 ft | 451 kts | 210° |
| 2026-05-08 03:08 | 32.91326 | 126.16811 | 38143 ft | 451 kts | 211° |
| 2026-05-08 03:09 | 32.85430 | 126.14277 | 38121 ft | 450 kts | 210° |
| 2026-05-08 03:09 | 32.79531 | 126.11749 | 38137 ft | 450 kts | 210° |
| 2026-05-08 03:10 | 32.73633 | 126.09227 | 38141 ft | 450 kts | 210° |
| 2026-05-08 03:10 | 32.67734 | 126.06709 | 38139 ft | 450 kts | 210° |
| 2026-05-08 03:11 | 32.61834 | 126.04193 | 38140 ft | 451 kts | 210° |
| 2026-05-08 03:11 | 32.55925 | 126.01677 | 38141 ft | 451 kts | 210° |
| 2026-05-08 03:12 | 32.50054 | 125.99182 | 38141 ft | 451 kts | 210° |
| 2026-05-08 03:12 | 32.44141 | 125.96679 | 38144 ft | 453 kts | 210° |
| 2026-05-08 03:13 | 32.38205 | 125.94162 | 38143 ft | 453 kts | 210° |
| 2026-05-08 03:13 | 32.32270 | 125.91649 | 38141 ft | 453 kts | 210° |
| 2026-05-08 03:14 | 32.26331 | 125.89141 | 38129 ft | 454 kts | 210° |
| 2026-05-08 03:14 | 32.20368 | 125.86624 | 38145 ft | 455 kts | 210° |
| 2026-05-08 03:15 | 32.14398 | 125.84110 | 38151 ft | 456 kts | 210° |
| 2026-05-08 03:15 | 32.08426 | 125.81601 | 38116 ft | 456 kts | 210° |
| 2026-05-08 03:16 | 32.02436 | 125.79084 | 38149 ft | 458 kts | 210° |
| 2026-05-08 03:16 | 31.96425 | 125.76560 | 38148 ft | 459 kts | 210° |
| 2026-05-08 03:17 | 31.90416 | 125.74032 | 38152 ft | 458 kts | 210° |
| 2026-05-08 03:17 | 31.84405 | 125.71507 | 38151 ft | 460 kts | 210° |
| 2026-05-08 03:18 | 31.78371 | 125.68976 | 38158 ft | 461 kts | 210° |
| 2026-05-08 03:18 | 31.72333 | 125.66450 | 38149 ft | 461 kts | 210° |
| 2026-05-08 03:19 | 31.66289 | 125.63929 | 38149 ft | 461 kts | 209° |
| 2026-05-08 03:19 | 31.60262 | 125.61405 | 38148 ft | 460 kts | 209° |
| 2026-05-08 03:20 | 31.54236 | 125.58885 | 38150 ft | 460 kts | 209° |
| 2026-05-08 03:20 | 31.48206 | 125.56375 | 38130 ft | 460 kts | 209° |
| 2026-05-08 03:21 | 31.42180 | 125.53844 | 38151 ft | 460 kts | 209° |
| 2026-05-08 03:21 | 31.36189 | 125.51331 | 38149 ft | 461 kts | 209° |
| 2026-05-08 03:22 | 31.30151 | 125.48808 | 38151 ft | 461 kts | 209° |
| 2026-05-08 03:22 | 31.24103 | 125.46284 | 38152 ft | 462 kts | 209° |
| 2026-05-08 03:23 | 31.18041 | 125.43759 | 38151 ft | 463 kts | 209° |
| 2026-05-08 03:23 | 31.11976 | 125.41238 | 38148 ft | 463 kts | 209° |
| 2026-05-08 03:24 | 31.05909 | 125.38720 | 38148 ft | 463 kts | 209° |
| 2026-05-08 03:24 | 30.99844 | 125.36205 | 38148 ft | 463 kts | 209° |
| 2026-05-08 03:25 | 30.93773 | 125.33690 | 38153 ft | 463 kts | 209° |
| 2026-05-08 03:25 | 30.87707 | 125.31182 | 38136 ft | 463 kts | 208° |
| 2026-05-08 03:26 | 30.81624 | 125.28668 | 38153 ft | 464 kts | 208° |
| 2026-05-08 03:26 | 30.75539 | 125.26158 | 38155 ft | 464 kts | 208° |
| 2026-05-08 03:27 | 30.69447 | 125.23650 | 38152 ft | 464 kts | 208° |
| 2026-05-08 03:27 | 30.63351 | 125.21141 | 38146 ft | 466 kts | 208° |
| 2026-05-08 03:28 | 30.57228 | 125.18625 | 38152 ft | 467 kts | 208° |
| 2026-05-08 03:28 | 30.51106 | 125.16115 | 38149 ft | 467 kts | 208° |
| 2026-05-08 03:29 | 30.45028 | 125.13624 | 38146 ft | 467 kts | 208° |
| 2026-05-08 03:29 | 30.38894 | 125.11112 | 38151 ft | 468 kts | 208° |
| 2026-05-08 03:30 | 30.29692 | 125.07352 | 38149 ft | 468 kts | 208° |
| 2026-05-08 03:31 | 30.17411 | 125.02344 | 38152 ft | 468 kts | 208° |
| 2026-05-08 03:32 | 30.08198 | 124.98597 | 38158 ft | 468 kts | 208° |
| 2026-05-08 03:32 | 30.02047 | 124.96099 | 38146 ft | 469 kts | 208° |
| 2026-05-08 03:33 | 29.95904 | 124.93572 | 38148 ft | 468 kts | 209° |
| 2026-05-08 03:33 | 29.89806 | 124.90948 | 38148 ft | 468 kts | 210° |
| 2026-05-08 03:34 | 29.83715 | 124.88320 | 38141 ft | 468 kts | 209° |
| 2026-05-08 03:34 | 29.77608 | 124.85706 | 38147 ft | 468 kts | 209° |
| 2026-05-08 03:35 | 29.71501 | 124.83107 | 38144 ft | 468 kts | 209° |
| 2026-05-08 03:35 | 29.65395 | 124.80514 | 38147 ft | 468 kts | 209° |
| 2026-05-08 03:36 | 29.59282 | 124.77920 | 38147 ft | 468 kts | 209° |
| 2026-05-08 03:36 | 29.53167 | 124.75329 | 38140 ft | 468 kts | 209° |
| 2026-05-08 03:37 | 29.47047 | 124.72739 | 38147 ft | 469 kts | 209° |
| 2026-05-08 03:37 | 29.40924 | 124.70151 | 38139 ft | 469 kts | 209° |
| 2026-05-08 03:38 | 29.34801 | 124.67565 | 38134 ft | 469 kts | 209° |
| 2026-05-08 03:38 | 29.28674 | 124.64982 | 38134 ft | 469 kts | 209° |
| 2026-05-08 03:39 | 29.22546 | 124.62401 | 38105 ft | 469 kts | 209° |
| 2026-05-08 03:39 | 29.16455 | 124.59840 | 38135 ft | 469 kts | 209° |
| 2026-05-08 03:40 | 29.10325 | 124.57265 | 38137 ft | 469 kts | 209° |
| 2026-05-08 03:40 | 29.04190 | 124.54692 | 38134 ft | 469 kts | 209° |
| 2026-05-08 03:41 | 28.98063 | 124.52112 | 38133 ft | 468 kts | 210° |
| 2026-05-08 03:41 | 28.92446 | 124.48664 | 38121 ft | 453 kts | 221° |
| 2026-05-08 03:42 | 28.87254 | 124.44603 | 38130 ft | 452 kts | 223° |
| 2026-05-08 03:42 | 28.82135 | 124.40451 | 38127 ft | 452 kts | 223° |
| 2026-05-08 03:43 | 28.77006 | 124.36299 | 38129 ft | 452 kts | 223° |
| 2026-05-08 03:43 | 28.71862 | 124.32167 | 38126 ft | 452 kts | 223° |
| 2026-05-08 03:44 | 28.66712 | 124.28046 | 38134 ft | 453 kts | 223° |
| 2026-05-08 03:44 | 28.61557 | 124.23929 | 38085 ft | 453 kts | 223° |
| 2026-05-08 03:45 | 28.56398 | 124.19810 | 38129 ft | 454 kts | 223° |
| 2026-05-08 03:45 | 28.51222 | 124.15684 | 38129 ft | 454 kts | 223° |
| 2026-05-08 03:46 | 28.46049 | 124.11564 | 38124 ft | 454 kts | 223° |
| 2026-05-08 03:46 | 28.40872 | 124.07447 | 38115 ft | 454 kts | 223° |
| 2026-05-08 03:47 | 28.36562 | 124.04022 | 38124 ft | 455 kts | 223° |
| 2026-05-08 03:47 | 28.31369 | 123.99901 | 38127 ft | 455 kts | 223° |
| 2026-05-08 03:48 | 28.26206 | 123.95745 | 38124 ft | 454 kts | 224° |
| 2026-05-08 03:48 | 28.21086 | 123.91549 | 38090 ft | 454 kts | 224° |
| 2026-05-08 03:49 | 28.15947 | 123.87347 | 38124 ft | 456 kts | 224° |
| 2026-05-08 03:49 | 28.10786 | 123.83149 | 38125 ft | 457 kts | 224° |
| 2026-05-08 03:50 | 28.05616 | 123.78958 | 38121 ft | 457 kts | 224° |
| 2026-05-08 03:50 | 28.00451 | 123.74776 | 38109 ft | 457 kts | 223° |
| 2026-05-08 03:51 | 27.95269 | 123.70582 | 38118 ft | 459 kts | 223° |
| 2026-05-08 03:51 | 27.90071 | 123.66384 | 38116 ft | 459 kts | 224° |
| 2026-05-08 03:52 | 27.84903 | 123.62171 | 38114 ft | 458 kts | 224° |
| 2026-05-08 03:52 | 27.79769 | 123.57985 | 38100 ft | 458 kts | 224° |
| 2026-05-08 03:53 | 27.74581 | 123.53766 | 38111 ft | 460 kts | 224° |
| 2026-05-08 03:53 | 27.69386 | 123.49553 | 38111 ft | 460 kts | 224° |
| 2026-05-08 03:54 | 27.64181 | 123.45340 | 38107 ft | 460 kts | 224° |
| 2026-05-08 03:54 | 27.58976 | 123.41131 | 38102 ft | 461 kts | 223° |
| 2026-05-08 03:55 | 27.53753 | 123.36909 | 38110 ft | 463 kts | 223° |
| 2026-05-08 03:55 | 27.48514 | 123.32682 | 38100 ft | 463 kts | 223° |
| 2026-05-08 03:56 | 27.43273 | 123.28459 | 38087 ft | 463 kts | 223° |
| 2026-05-08 03:56 | 27.38033 | 123.24241 | 38091 ft | 464 kts | 223° |
| 2026-05-08 03:57 | 27.32773 | 123.20011 | 38094 ft | 465 kts | 223° |
| 2026-05-08 03:57 | 27.27503 | 123.15779 | 38095 ft | 465 kts | 223° |
| 2026-05-08 03:58 | 27.22237 | 123.11557 | 38090 ft | 465 kts | 223° |
| 2026-05-08 03:58 | 27.16967 | 123.07334 | 38079 ft | 466 kts | 223° |
| 2026-05-08 03:59 | 27.11666 | 123.03089 | 38092 ft | 469 kts | 223° |
| 2026-05-08 03:59 | 27.06353 | 122.98847 | 38089 ft | 469 kts | 223° |
| 2026-05-08 04:00 | 27.01029 | 122.94612 | 38084 ft | 469 kts | 223° |
| 2026-05-08 04:00 | 26.95709 | 122.90382 | 38089 ft | 469 kts | 223° |
| 2026-05-08 04:01 | 26.90385 | 122.86153 | 38089 ft | 468 kts | 223° |
| 2026-05-08 04:01 | 26.85069 | 122.81935 | 38084 ft | 468 kts | 223° |
| 2026-05-08 04:02 | 26.79754 | 122.77723 | 38088 ft | 468 kts | 223° |
| 2026-05-08 04:02 | 26.74431 | 122.73509 | 38075 ft | 470 kts | 222° |
| 2026-05-08 04:03 | 26.69086 | 122.69283 | 38086 ft | 471 kts | 222° |
| 2026-05-08 04:03 | 26.61087 | 122.62974 | 38073 ft | 471 kts | 222° |
| 2026-05-08 04:04 | 26.55700 | 122.58722 | 38051 ft | 471 kts | 222° |
| 2026-05-08 04:04 | 26.50374 | 122.54523 | 38068 ft | 472 kts | 222° |
| 2026-05-08 04:05 | 26.45006 | 122.50298 | 38069 ft | 472 kts | 222° |
| 2026-05-08 04:05 | 26.39635 | 122.46077 | 38068 ft | 472 kts | 222° |
| 2026-05-08 04:06 | 26.34264 | 122.41861 | 38045 ft | 472 kts | 221° |
| 2026-05-08 04:06 | 26.28877 | 122.37635 | 38069 ft | 474 kts | 221° |
| 2026-05-08 04:07 | 26.23473 | 122.33404 | 38067 ft | 475 kts | 221° |
| 2026-05-08 04:07 | 26.18065 | 122.29175 | 38066 ft | 475 kts | 221° |
| 2026-05-08 04:08 | 26.12657 | 122.24954 | 38045 ft | 475 kts | 221° |
| 2026-05-08 04:08 | 26.07203 | 122.20765 | 38059 ft | 477 kts | 220° |
| 2026-05-08 04:09 | 26.01725 | 122.16582 | 38062 ft | 478 kts | 220° |
| 2026-05-08 04:09 | 25.96245 | 122.12399 | 38056 ft | 478 kts | 220° |
| 2026-05-08 04:10 | 25.90767 | 122.08216 | 38035 ft | 478 kts | 220° |
| 2026-05-08 04:10 | 25.85273 | 122.04023 | 38059 ft | 480 kts | 220° |
| 2026-05-08 04:11 | 25.79807 | 121.99859 | 38059 ft | 480 kts | 220° |
| 2026-05-08 04:11 | 25.74304 | 121.95669 | 38053 ft | 480 kts | 220° |
| 2026-05-08 04:12 | 25.68802 | 121.91474 | 38032 ft | 479 kts | 220° |
| 2026-05-08 04:12 | 25.63322 | 121.87245 | 38040 ft | 481 kts | 220° |
| 2026-05-08 04:13 | 25.57829 | 121.82999 | 38037 ft | 482 kts | 220° |
| 2026-05-08 04:13 | 25.52331 | 121.78751 | 38030 ft | 482 kts | 220° |
| 2026-05-08 04:14 | 25.46831 | 121.74525 | 38032 ft | 481 kts | 220° |
| 2026-05-08 04:14 | 25.41345 | 121.70276 | 38028 ft | 482 kts | 220° |
| 2026-05-08 04:15 | 25.35866 | 121.66014 | 38023 ft | 482 kts | 220° |
| 2026-05-08 04:15 | 25.30386 | 121.61752 | 38023 ft | 482 kts | 220° |
| 2026-05-08 04:16 | 25.24909 | 121.57488 | 38017 ft | 482 kts | 220° |
| 2026-05-08 04:16 | 25.19436 | 121.53213 | 38020 ft | 482 kts | 220° |
| 2026-05-08 04:17 | 25.13964 | 121.48935 | 38021 ft | 482 kts | 220° |
| 2026-05-08 04:17 | 25.08491 | 121.44653 | 38021 ft | 482 kts | 220° |
| 2026-05-08 04:18 | 25.03020 | 121.40371 | 38020 ft | 482 kts | 220° |
| 2026-05-08 04:18 | 24.97545 | 121.36081 | 38025 ft | 483 kts | 220° |
| 2026-05-08 04:19 | 24.92061 | 121.31782 | 38025 ft | 484 kts | 220° |
| 2026-05-08 04:19 | 24.86578 | 121.27481 | 38026 ft | 484 kts | 220° |
| 2026-05-08 04:20 | 24.81097 | 121.23184 | 38037 ft | 484 kts | 220° |
| 2026-05-08 04:20 | 24.75601 | 121.18897 | 38040 ft | 484 kts | 221° |
| 2026-05-08 04:21 | 24.70109 | 121.14612 | 38043 ft | 484 kts | 220° |
| 2026-05-08 04:21 | 24.64620 | 121.10329 | 38044 ft | 484 kts | 221° |
| 2026-05-08 04:22 | 24.59137 | 121.06044 | 38027 ft | 484 kts | 221° |
| 2026-05-08 04:22 | 24.53651 | 121.01762 | 38043 ft | 484 kts | 220° |
| 2026-05-08 04:23 | 24.48159 | 120.97476 | 38036 ft | 484 kts | 221° |
| 2026-05-08 04:23 | 24.42660 | 120.93192 | 38028 ft | 484 kts | 221° |
| 2026-05-08 04:24 | 24.37203 | 120.88945 | 38019 ft | 484 kts | 221° |
| 2026-05-08 04:24 | 24.31711 | 120.84676 | 37996 ft | 484 kts | 221° |
| 2026-05-08 04:25 | 24.26226 | 120.80405 | 38003 ft | 484 kts | 221° |
| 2026-05-08 04:25 | 24.20743 | 120.76130 | 38000 ft | 484 kts | 221° |
| 2026-05-08 04:26 | 24.15261 | 120.71855 | 37995 ft | 484 kts | 221° |
| 2026-05-08 04:26 | 24.09779 | 120.67578 | 37997 ft | 484 kts | 221° |
| 2026-05-08 04:27 | 24.04301 | 120.63296 | 37994 ft | 485 kts | 221° |
| 2026-05-08 04:27 | 23.98808 | 120.58995 | 37991 ft | 486 kts | 221° |
| 2026-05-08 04:28 | 23.93320 | 120.54696 | 37987 ft | 485 kts | 221° |
| 2026-05-08 04:28 | 23.87832 | 120.50398 | 37988 ft | 485 kts | 221° |
| 2026-05-08 04:29 | 23.82343 | 120.46095 | 37988 ft | 487 kts | 221° |
| 2026-05-08 04:29 | 23.76838 | 120.41773 | 37989 ft | 487 kts | 221° |
| 2026-05-08 04:30 | 23.71332 | 120.37459 | 37985 ft | 487 kts | 221° |
| 2026-05-08 04:30 | 23.65828 | 120.33167 | 37984 ft | 486 kts | 221° |
| 2026-05-08 04:31 | 23.60329 | 120.28876 | 37987 ft | 487 kts | 221° |
| 2026-05-08 04:31 | 23.54850 | 120.24591 | 37983 ft | 488 kts | 221° |
| 2026-05-08 04:32 | 23.49330 | 120.20270 | 37976 ft | 489 kts | 221° |
| 2026-05-08 04:32 | 23.43808 | 120.15944 | 37975 ft | 489 kts | 221° |
| 2026-05-08 04:33 | 23.38285 | 120.11616 | 37969 ft | 489 kts | 221° |
| 2026-05-08 04:33 | 23.32766 | 120.07279 | 37972 ft | 490 kts | 221° |
| 2026-05-08 04:34 | 23.27238 | 120.02935 | 37973 ft | 490 kts | 221° |
| 2026-05-08 04:34 | 23.21717 | 119.98594 | 37967 ft | 490 kts | 221° |
| 2026-05-08 04:35 | 23.17091 | 119.94956 | 37972 ft | 490 kts | 221° |
| 2026-05-08 04:35 | 23.11573 | 119.90595 | 37969 ft | 491 kts | 221° |
| 2026-05-08 04:36 | 23.06064 | 119.86193 | 37974 ft | 492 kts | 221° |
| 2026-05-08 04:36 | 23.00544 | 119.81779 | 37974 ft | 492 kts | 221° |
| 2026-05-08 04:37 | 22.95068 | 119.77411 | 37969 ft | 492 kts | 221° |
| 2026-05-08 04:37 | 22.89563 | 119.73020 | 37968 ft | 491 kts | 221° |
| 2026-05-08 04:38 | 22.84058 | 119.68601 | 37967 ft | 492 kts | 221° |
| 2026-05-08 04:38 | 22.78564 | 119.64184 | 37974 ft | 493 kts | 221° |
| 2026-05-08 04:39 | 22.72685 | 119.60294 | 37970 ft | 499 kts | 208° |
| 2026-05-08 04:39 | 22.65945 | 119.58399 | 37920 ft | 510 kts | 188° |
| 2026-05-08 04:40 | 22.62332 | 119.58414 | 37907 ft | 516 kts | 177° |
| 2026-05-08 04:40 | 22.58831 | 119.59104 | 37907 ft | 521 kts | 167° |
| 2026-05-08 04:40 | 22.55426 | 119.60478 | 37905 ft | 525 kts | 156° |
| 2026-05-08 04:40 | 22.52279 | 119.62495 | 37904 ft | 528 kts | 144° |
| 2026-05-08 04:41 | 22.47189 | 119.68181 | 37905 ft | 529 kts | 123° |
| 2026-05-08 04:41 | 22.45413 | 119.71668 | 37901 ft | 528 kts | 112° |
| 2026-05-08 04:41 | 22.44239 | 119.75411 | 37901 ft | 526 kts | 101° |
| 2026-05-08 04:42 | 22.43690 | 119.79295 | 37899 ft | 522 kts | 90° |
| 2026-05-08 04:42 | 22.43769 | 119.83192 | 37899 ft | 517 kts | 80° |
| 2026-05-08 04:42 | 22.44462 | 119.86989 | 37899 ft | 511 kts | 69° |
| 2026-05-08 04:42 | 22.45723 | 119.90551 | 37898 ft | 505 kts | 59° |
| 2026-05-08 04:43 | 22.47537 | 119.93760 | 37905 ft | 497 kts | 47° |
| 2026-05-08 04:43 | 22.49786 | 119.96572 | 37893 ft | 492 kts | 40° |
| 2026-05-08 04:43 | 22.52454 | 119.98825 | 37891 ft | 482 kts | 25° |
| 2026-05-08 04:43 | 22.55506 | 120.00195 | 37888 ft | 471 kts | 9° |
| 2026-05-08 04:44 | 22.61952 | 120.00962 | 37904 ft | 469 kts | 4° |
| 2026-05-08 04:44 | 22.68364 | 120.02534 | 37910 ft | 476 kts | 12° |
| 2026-05-08 04:45 | 22.74675 | 120.04789 | 37905 ft | 478 kts | 15° |
| 2026-05-08 04:45 | 22.80936 | 120.07256 | 37904 ft | 479 kts | 16° |
| 2026-05-08 04:46 | 22.87173 | 120.09785 | 37921 ft | 479 kts | 15° |
| 2026-05-08 04:46 | 22.93372 | 120.12321 | 37925 ft | 479 kts | 16° |
| 2026-05-08 04:47 | 22.99643 | 120.14896 | 37926 ft | 479 kts | 16° |
| 2026-05-08 04:47 | 23.05867 | 120.17457 | 37925 ft | 479 kts | 16° |
| 2026-05-08 04:48 | 23.12062 | 120.19970 | 37928 ft | 477 kts | 13° |
| 2026-05-08 04:48 | 23.18491 | 120.21231 | 37933 ft | 468 kts | 1° |
| 2026-05-08 04:49 | 23.25012 | 120.21994 | 37939 ft | 468 kts | 1° |
| 2026-05-08 04:49 | 23.31449 | 120.22754 | 37939 ft | 468 kts | 1° |
| 2026-05-08 04:50 | 23.37922 | 120.23525 | 37955 ft | 468 kts | 1° |
| 2026-05-08 04:50 | 23.44401 | 120.24297 | 37958 ft | 469 kts | 1° |
| 2026-05-08 04:51 | 23.50888 | 120.25072 | 37959 ft | 469 kts | 1° |
| 2026-05-08 04:51 | 23.57380 | 120.25849 | 37962 ft | 469 kts | 1° |
| 2026-05-08 04:52 | 23.63854 | 120.26625 | 37833 ft | 465 kts | 1° |
| 2026-05-08 04:52 | 23.67067 | 120.27011 | 37051 ft | 466 kts | 1° |
| 2026-05-08 04:52 | 23.70297 | 120.27472 | 35948 ft | 474 kts | 6° |
| 2026-05-08 04:53 | 23.73515 | 120.28407 | 34571 ft | 483 kts | 12° |
| 2026-05-08 04:53 | 23.76740 | 120.29526 | 33133 ft | 489 kts | 13° |
| 2026-05-08 04:53 | 23.79986 | 120.30669 | 31888 ft | 488 kts | 13° |
| 2026-05-08 04:53 | 23.83199 | 120.31797 | 30820 ft | 483 kts | 13° |
| 2026-05-08 04:54 | 23.86376 | 120.32906 | 29796 ft | 476 kts | 14° |
| 2026-05-08 04:54 | 23.89513 | 120.33998 | 28658 ft | 471 kts | 14° |
| 2026-05-08 04:54 | 23.92613 | 120.35076 | 27528 ft | 466 kts | 14° |
| 2026-05-08 04:54 | 23.95688 | 120.36143 | 26488 ft | 459 kts | 14° |
| 2026-05-08 04:55 | 23.98712 | 120.37193 | 25491 ft | 453 kts | 14° |
| 2026-05-08 04:55 | 24.01698 | 120.38230 | 24546 ft | 448 kts | 14° |
| 2026-05-08 04:55 | 24.04650 | 120.39253 | 23682 ft | 442 kts | 15° |
| 2026-05-08 04:55 | 24.07566 | 120.40268 | 22574 ft | 438 kts | 15° |
| 2026-05-08 04:56 | 24.10447 | 120.41272 | 21481 ft | 432 kts | 14° |
| 2026-05-08 04:56 | 24.13299 | 120.42264 | 20458 ft | 426 kts | 14° |
| 2026-05-08 04:56 | 24.15760 | 120.43120 | 19597 ft | 421 kts | 14° |
| 2026-05-08 04:56 | 24.18441 | 120.44053 | 18672 ft | 415 kts | 14° |
| 2026-05-08 04:57 | 24.21151 | 120.44998 | 18024 ft | 401 kts | 14° |
| 2026-05-08 04:57 | 24.23747 | 120.45905 | 17544 ft | 382 kts | 14° |
| 2026-05-08 04:57 | 24.26220 | 120.46768 | 17116 ft | 365 kts | 14° |
| 2026-05-08 04:57 | 24.28593 | 120.47596 | 16705 ft | 354 kts | 14° |
| 2026-05-08 04:58 | 24.30945 | 120.48413 | 16300 ft | 353 kts | 14° |
| 2026-05-08 04:58 | 24.33282 | 120.49225 | 15895 ft | 352 kts | 14° |
| 2026-05-08 04:58 | 24.35609 | 120.50034 | 15496 ft | 350 kts | 14° |
| 2026-05-08 04:58 | 24.37892 | 120.50830 | 15097 ft | 348 kts | 14° |
| 2026-05-08 04:59 | 24.40193 | 120.51631 | 14696 ft | 346 kts | 14° |
| 2026-05-08 04:59 | 24.42486 | 120.52434 | 14304 ft | 346 kts | 14° |
| 2026-05-08 04:59 | 24.44774 | 120.53234 | 13906 ft | 345 kts | 13° |
| 2026-05-08 04:59 | 24.47059 | 120.54033 | 13489 ft | 346 kts | 13° |
| 2026-05-08 05:00 | 24.49349 | 120.54833 | 13080 ft | 344 kts | 13° |
| 2026-05-08 05:00 | 24.51615 | 120.55625 | 12689 ft | 340 kts | 14° |
| 2026-05-08 05:00 | 24.53858 | 120.56411 | 12290 ft | 336 kts | 13° |
| 2026-05-08 05:00 | 24.56083 | 120.57188 | 11891 ft | 335 kts | 14° |
| 2026-05-08 05:01 | 24.58305 | 120.57968 | 11517 ft | 336 kts | 13° |
| 2026-05-08 05:01 | 24.60531 | 120.58745 | 11146 ft | 334 kts | 15° |
| 2026-05-08 05:01 | 24.62703 | 120.59510 | 10994 ft | 322 kts | 15° |
| 2026-05-08 05:01 | 24.64797 | 120.60247 | 10878 ft | 309 kts | 15° |
| 2026-05-08 05:02 | 24.66795 | 120.61004 | 10722 ft | 301 kts | 20° |
| 2026-05-08 05:02 | 24.68558 | 120.62236 | 10358 ft | 302 kts | 37° |
| 2026-05-08 05:02 | 24.70136 | 120.63757 | 10048 ft | 301 kts | 40° |
| 2026-05-08 05:02 | 24.71693 | 120.65311 | 9750 ft | 303 kts | 41° |
| 2026-05-08 05:03 | 24.73279 | 120.66888 | 9603 ft | 313 kts | 40° |
| 2026-05-08 05:03 | 24.74896 | 120.68486 | 9289 ft | 312 kts | 40° |
| 2026-05-08 05:03 | 24.76521 | 120.70089 | 8818 ft | 313 kts | 41° |
| 2026-05-08 05:03 | 24.78135 | 120.71678 | 8465 ft | 309 kts | 41° |
| 2026-05-08 05:04 | 24.79719 | 120.73240 | 8161 ft | 305 kts | 40° |
| 2026-05-08 05:04 | 24.81300 | 120.74797 | 7841 ft | 305 kts | 41° |
| 2026-05-08 05:04 | 24.82885 | 120.76358 | 7533 ft | 305 kts | 41° |
| 2026-05-08 05:04 | 24.84451 | 120.77900 | 7243 ft | 300 kts | 41° |
| 2026-05-08 05:05 | 24.85998 | 120.79426 | 6924 ft | 297 kts | 41° |
| 2026-05-08 05:05 | 24.87533 | 120.80938 | 6613 ft | 297 kts | 41° |
| 2026-05-08 05:05 | 24.89079 | 120.82463 | 6304 ft | 297 kts | 41° |
| 2026-05-08 05:05 | 24.90564 | 120.83977 | 6022 ft | 293 kts | 46° |
| 2026-05-08 05:06 | 24.91617 | 120.85842 | 5695 ft | 286 kts | 74° |
| 2026-05-08 05:06 | 24.91824 | 120.87990 | 5389 ft | 282 kts | 94° |
| 2026-05-08 05:06 | 24.91716 | 120.90144 | 5084 ft | 282 kts | 96° |
| 2026-05-08 05:06 | 24.91587 | 120.92287 | 4770 ft | 279 kts | 95° |
| 2026-05-08 05:07 | 24.91470 | 120.94380 | 4628 ft | 267 kts | 94° |
| 2026-05-08 05:07 | 24.91362 | 120.96376 | 4490 ft | 256 kts | 94° |
| 2026-05-08 05:07 | 24.91261 | 120.98286 | 4356 ft | 244 kts | 94° |
| 2026-05-08 05:07 | 24.91166 | 121.00113 | 4218 ft | 234 kts | 94° |
| 2026-05-08 05:08 | 24.91087 | 121.01860 | 4084 ft | 223 kts | 91° |
| 2026-05-08 05:08 | 24.91446 | 121.03458 | 3988 ft | 210 kts | 63° |
| 2026-05-08 05:08 | 24.92260 | 121.04769 | 3985 ft | 208 kts | 50° |
| 2026-05-08 05:08 | 24.93200 | 121.05976 | 3865 ft | 204 kts | 51° |
| 2026-05-08 05:09 | 24.94089 | 121.07156 | 3659 ft | 198 kts | 50° |
| 2026-05-08 05:09 | 24.94987 | 121.08298 | 3377 ft | 196 kts | 49° |
| 2026-05-08 05:09 | 24.95881 | 121.09424 | 3101 ft | 194 kts | 50° |
| 2026-05-08 05:09 | 24.96760 | 121.10544 | 2828 ft | 192 kts | 49° |
| 2026-05-08 05:10 | 24.97616 | 121.11630 | 2576 ft | 182 kts | 50° |
| 2026-05-08 05:10 | 24.99181 | 121.13613 | 2111 ft | 160 kts | 48° |
| 2026-05-08 05:10 | 24.99880 | 121.14499 | 1937 ft | 147 kts | 48° |
| 2026-05-08 05:11 | 25.00530 | 121.15323 | 1739 ft | 138 kts | 49° |
| 2026-05-08 05:11 | 25.01144 | 121.16100 | 1575 ft | 129 kts | 49° |
| 2026-05-08 05:11 | 25.01722 | 121.16832 | 1403 ft | 125 kts | 49° |
| 2026-05-08 05:11 | 25.02290 | 121.17551 | 1240 ft | 125 kts | 48° |
| 2026-05-08 05:12 | 25.02860 | 121.18271 | 1069 ft | 125 kts | 49° |
| 2026-05-08 05:12 | 25.03434 | 121.18998 | 936 ft | 127 kts | 50° |
| 2026-05-08 05:12 | 25.04003 | 121.19732 | 795 ft | 124 kts | 46° |
| 2026-05-08 05:12 | 25.04572 | 121.20433 | 579 ft | 121 kts | 46° |
| 2026-05-08 05:13 | 25.05110 | 121.21116 | 425 ft | 120 kts | 50° |
| 2026-05-08 05:13 | 25.05673 | 121.21835 | 283 ft | 127 kts | 49° |
| 2026-05-08 05:13 | 25.06250 | 121.22571 | 144 ft | 123 kts | 47° |
| 2026-05-08 05:13 | 25.06784 | 121.23241 | 107 ft | 110 kts | 49° |
| 2026-05-08 05:14 | 25.07200 | 121.23771 | 103 ft | 63 kts | 49° |
| 2026-05-08 05:14 | 25.07409 | 121.24036 | 102 ft | 32 kts | 49° |
| 2026-05-08 05:14 | 25.07566 | 121.24174 | 102 ft | 26 kts | 27° |
| 2026-05-08 05:14 | 25.07716 | 121.24237 | 104 ft | 21 kts | 20° |
| 2026-05-08 05:15 | 25.07847 | 121.24276 | 106 ft | 19 kts | 358° |
| 2026-05-08 05:15 | 25.07951 | 121.24204 | 105 ft | 18 kts | 318° |
| 2026-05-08 05:15 | 25.07966 | 121.24103 | 105 ft | 15 kts | 235° |
| 2026-05-08 05:15 | 25.07892 | 121.24008 | 106 ft | 17 kts | 229° |
| 2026-05-08 05:16 | 25.07816 | 121.23910 | 105 ft | 13 kts | 229° |
| 2026-05-08 05:16 | 25.07824 | 121.23833 | 106 ft | 11 kts | 311° |
| 2026-05-08 05:16 | 25.07871 | 121.23790 | 105 ft | 5 kts | 319° |
| 2026-05-08 05:16 | 25.07882 | 121.23780 | 105 ft | 0 kts | 319° |